Time;durP1;ratioP1;P1;durP2;ratioP2;P2;SDS_P1;SDS_P2;PMS_P1;PMS_P2;Temp;Humidity;BMP_temperature;BMP_pressure;BME280_temperature;BME280_humidity;BME280_pressure;Samples;Min_cycle;Max_cycle;Signal;HPM_P1;HPM_P2
2021/03/09 00:02:06;;;;;;;15.20;11.60;;;2.00;99.90;;;;;;5030959;28;20672;-39
2021/03/09 00:04:33;;;;;;;14.70;11.73;;;2.00;99.90;;;;;;5030856;28;20671;-39
2021/03/09 00:07:00;;;;;;;16.85;12.05;;;2.00;99.90;;;;;;5031276;28;20270;-39
2021/03/09 00:09:28;;;;;;;16.02;13.57;;;2.00;99.90;;;;;;5031024;28;20274;-39
2021/03/09 00:11:55;;;;;;;15.77;13.73;;;2.00;99.90;;;;;;5031118;28;20235;-40
2021/03/09 00:14:22;;;;;;;16.90;13.60;;;2.10;99.90;;;;;;5031133;28;20734;-40
2021/03/09 00:16:49;;;;;;;14.57;12.27;;;2.00;99.90;;;;;;5030897;28;20239;-41
2021/03/09 00:19:16;;;;;;;14.52;12.73;;;2.00;99.90;;;;;;5030754;28;20205;-39
2021/03/09 00:21:43;;;;;;;17.55;13.10;;;2.00;99.90;;;;;;5031155;28;20232;-40
2021/03/09 00:24:10;;;;;;;16.50;13.65;;;2.00;99.90;;;;;;5030953;28;20583;-39
2021/03/09 00:26:38;;;;;;;18.63;16.00;;;1.90;99.90;;;;;;5030972;28;20553;-40
2021/03/09 00:29:05;;;;;;;17.30;13.70;;;1.90;99.90;;;;;;5030994;28;20291;-39
2021/03/09 00:31:32;;;;;;;17.10;13.15;;;1.90;99.90;;;;;;5032336;28;20247;-39
2021/03/09 00:33:59;;;;;;;21.40;14.15;;;1.90;99.90;;;;;;5034517;28;20208;-40
2021/03/09 00:36:26;;;;;;;15.27;12.90;;;1.90;99.90;;;;;;5034992;28;20297;-40
2021/03/09 00:38:53;;;;;;;15.50;13.68;;;1.80;99.90;;;;;;5035065;28;20212;-40
2021/03/09 00:41:20;;;;;;;17.17;14.60;;;1.80;99.90;;;;;;5034804;28;20300;-40
2021/03/09 00:43:48;;;;;;;17.27;13.40;;;1.70;99.90;;;;;;5034526;28;20739;-40
2021/03/09 00:46:15;;;;;;;17.73;14.48;;;1.70;99.90;;;;;;5034442;28;20299;-40
2021/03/09 00:48:42;;;;;;;19.33;13.55;;;1.60;99.90;;;;;;5034585;28;20259;-40
2021/03/09 00:51:09;;;;;;;19.70;14.27;;;1.60;99.90;;;;;;5034856;28;20235;-40
2021/03/09 00:53:37;;;;;;;19.55;14.75;;;1.60;99.90;;;;;;5034526;28;20279;-40
2021/03/09 00:56:04;;;;;;;15.05;13.00;;;1.60;99.90;;;;;;5034672;28;20227;-40
2021/03/09 00:58:31;;;;;;;17.08;14.15;;;1.60;99.90;;;;;;5034793;28;20663;-39
2021/03/09 01:00:59;;;;;;;15.60;12.95;;;1.60;99.90;;;;;;5034352;28;20693;-39
2021/03/09 01:03:26;;;;;;;16.52;12.70;;;1.60;99.90;;;;;;5034585;28;20245;-40
2021/03/09 01:05:53;;;;;;;18.38;13.25;;;1.60;99.90;;;;;;5034613;28;20267;-40
2021/03/09 01:08:20;;;;;;;20.92;14.32;;;1.50;99.90;;;;;;5034349;28;20220;-40
2021/03/09 01:10:47;;;;;;;19.17;14.60;;;1.40;99.90;;;;;;5034434;28;20631;-40
2021/03/09 01:13:14;;;;;;;19.13;14.60;;;1.40;99.90;;;;;;5034337;28;20233;-40
2021/03/09 01:15:41;;;;;;;16.05;14.00;;;1.40;99.90;;;;;;5033989;28;20697;-39
2021/03/09 01:18:19;;;;;;;16.60;13.10;;;1.30;99.90;;;;;;5034498;28;20208;-40
2021/03/09 01:20:46;;;;;;;16.80;13.98;;;1.30;99.90;;;;;;5034133;28;20205;-39
2021/03/09 01:23:14;;;;;;;17.58;13.90;;;1.30;99.90;;;;;;5033959;28;20205;-39
2021/03/09 01:25:41;;;;;;;17.80;14.93;;;1.30;99.90;;;;;;5034061;28;20295;-39
2021/03/09 01:28:08;;;;;;;18.27;13.55;;;1.30;99.90;;;;;;5033908;28;20300;-39
2021/03/09 01:30:35;;;;;;;18.63;14.43;;;1.20;99.90;;;;;;5034200;28;20267;-40
2021/03/09 01:33:03;;;;;;;17.17;13.93;;;1.30;99.90;;;;;;5033886;28;20225;-40
2021/03/09 01:35:31;;;;;;;18.77;14.05;;;1.30;99.90;;;;;;5033779;28;20690;-40
2021/03/09 01:37:58;;;;;;;16.73;13.82;;;1.30;99.90;;;;;;5033847;28;20248;-39
2021/03/09 01:40:26;;;;;;;20.10;15.23;;;1.30;99.90;;;;;;5033596;28;20209;-39
2021/03/09 01:42:53;;;;;;;16.35;13.80;;;1.30;99.90;;;;;;5032768;28;20215;-39
2021/03/09 01:45:20;;;;;;;18.50;14.27;;;1.30;99.90;;;;;;5033728;28;20411;-39
2021/03/09 01:47:49;;;;;;;20.25;16.05;;;1.20;99.90;;;;;;5033606;28;20252;-39
2021/03/09 01:50:19;;;;;;;18.00;15.07;;;1.20;99.90;;;;;;5033412;28;20627;-39
2021/03/09 01:52:48;;;;;;;20.35;15.45;;;1.10;99.90;;;;;;5033430;28;20315;-38
2021/03/09 01:55:16;;;;;;;17.75;14.95;;;1.10;99.90;;;;;;5033344;28;20244;-40
2021/03/09 01:57:43;;;;;;;17.60;14.27;;;1.10;99.90;;;;;;5033523;28;20259;-39
2021/03/09 02:00:12;;;;;;;18.23;14.68;;;1.10;99.90;;;;;;5033309;28;20217;-39
2021/03/09 02:02:40;;;;;;;19.38;14.48;;;1.10;99.90;;;;;;5033332;28;20367;-39
2021/03/09 02:05:08;;;;;;;17.83;14.70;;;1.10;99.90;;;;;;5033245;28;20212;-39
2021/03/09 02:07:36;;;;;;;19.30;15.25;;;1.10;99.90;;;;;;5033191;28;20267;-40
2021/03/09 02:10:05;;;;;;;20.60;15.60;;;1.00;99.90;;;;;;5033364;28;20314;-39
2021/03/09 02:12:44;;;;;;;20.88;15.13;;;1.00;99.90;;;;;;5032833;28;20319;-39
2021/03/09 02:15:17;;;;;;;19.30;14.82;;;1.00;99.90;;;;;;5033199;28;20303;-39
2021/03/09 02:17:53;;;;;;;19.60;15.52;;;0.90;99.90;;;;;;5033224;28;20395;-39
2021/03/09 02:20:58;;;;;;;22.98;15.32;;;1.00;99.90;;;;;;5032893;28;20720;-39
2021/03/09 02:24:12;;;;;;;16.63;13.40;;;0.90;99.90;;;;;;5009933;28;20707;-39
2021/03/09 02:27:15;;;;;;;21.30;14.90;;;0.90;99.90;;;;;;5032601;28;20266;-40
2021/03/09 02:30:06;;;;;;;20.58;15.07;;;0.90;99.90;;;;;;5032864;28;20209;-40
2021/03/09 02:32:38;;;;;;;25.13;17.00;;;0.80;99.90;;;;;;5032471;28;20233;-39
2021/03/09 02:35:11;;;;;;;21.80;15.60;;;0.80;99.90;;;;;;5032508;28;20679;-40
2021/03/09 02:37:40;;;;;;;22.10;15.13;;;0.80;99.90;;;;;;5032983;28;20232;-40
2021/03/09 02:40:12;;;;;;;24.13;16.58;;;0.80;99.90;;;;;;5032709;28;20315;-39
2021/03/09 02:42:46;;;;;;;22.98;17.38;;;0.80;99.90;;;;;;5032503;28;20248;-39
2021/03/09 02:45:16;;;;;;;22.48;16.80;;;0.70;99.90;;;;;;5032399;28;20308;-39
2021/03/09 02:47:46;;;;;;;18.33;15.55;;;0.70;99.90;;;;;;5032373;28;20206;-39
2021/03/09 02:50:16;;;;;;;19.55;15.15;;;0.70;99.90;;;;;;5032783;28;20218;-39
2021/03/09 02:52:49;;;;;;;19.77;15.85;;;0.70;99.90;;;;;;5032501;28;20226;-39
2021/03/09 02:55:18;;;;;;;20.67;16.70;;;0.60;99.90;;;;;;5032174;28;20219;-39
2021/03/09 02:57:47;;;;;;;21.00;16.17;;;0.70;99.90;;;;;;5032384;28;20287;-39
2021/03/09 03:00:16;;;;;;;21.05;15.98;;;0.60;99.90;;;;;;5032125;28;20608;-40
2021/03/09 03:02:44;;;;;;;18.95;15.80;;;0.60;99.90;;;;;;5032213;28;20279;-39
2021/03/09 03:05:14;;;;;;;20.23;15.82;;;0.60;99.90;;;;;;5032435;28;20230;-39
2021/03/09 03:07:41;;;;;;;21.45;16.33;;;0.60;99.90;;;;;;5032176;28;20244;-39
2021/03/09 03:10:15;;;;;;;20.92;16.15;;;0.60;99.90;;;;;;5031970;28;20639;-40
2021/03/09 03:12:43;;;;;;;18.20;14.57;;;0.60;99.90;;;;;;5032091;28;20232;-39
2021/03/09 03:15:13;;;;;;;19.52;15.20;;;0.60;99.90;;;;;;5032086;28;20287;-37
2021/03/09 03:17:43;;;;;;;19.33;15.68;;;0.60;99.90;;;;;;5031927;28;20288;-39
2021/03/09 03:20:14;;;;;;;18.13;16.08;;;0.60;99.90;;;;;;5032140;28;20576;-39
2021/03/09 03:22:43;;;;;;;22.10;15.52;;;0.50;99.90;;;;;;5031695;28;20605;-39
2021/03/09 03:25:12;;;;;;;19.30;15.80;;;0.50;99.90;;;;;;5032048;28;20205;-39
2021/03/09 03:27:41;;;;;;;21.90;14.95;;;0.40;99.90;;;;;;5032102;28;20304;-42
2021/03/09 03:30:10;;;;;;;18.65;15.00;;;0.40;99.90;;;;;;5031982;28;20209;-41
2021/03/09 03:32:37;;;;;;;23.73;16.15;;;0.30;99.90;;;;;;5031805;28;20311;-41
2021/03/09 03:35:07;;;;;;;20.65;15.55;;;0.20;99.90;;;;;;5031821;28;20213;-42
2021/03/09 03:37:36;;;;;;;22.27;16.35;;;0.20;99.90;;;;;;5031723;28;20740;-42
2021/03/09 03:40:08;;;;;;;21.92;16.65;;;0.10;99.90;;;;;;5031719;28;20205;-38
2021/03/09 03:42:35;;;;;;;22.77;16.65;;;0.20;99.90;;;;;;5031689;28;20204;-39
2021/03/09 03:45:03;;;;;;;20.45;17.25;;;0.10;99.90;;;;;;5031322;28;20243;-39
2021/03/09 03:47:30;;;;;;;24.17;17.23;;;0.20;99.90;;;;;;5031451;28;20750;-39
2021/03/09 03:50:14;;;;;;;20.83;16.42;;;0.10;99.90;;;;;;5031734;28;20209;-39
2021/03/09 03:52:50;;;;;;;23.15;16.80;;;0.10;99.90;;;;;;5031891;28;20264;-39
2021/03/09 03:55:30;;;;;;;27.35;16.88;;;0.10;99.90;;;;;;5031498;28;20287;-39
2021/03/09 03:58:05;;;;;;;20.52;15.60;;;0.10;99.90;;;;;;5031404;28;20217;-39
2021/03/09 04:00:34;;;;;;;23.02;17.08;;;0.10;99.90;;;;;;5031597;28;20232;-39
2021/03/09 04:03:01;;;;;;;24.08;17.13;;;0.20;99.90;;;;;;5031300;28;20711;-40
2021/03/09 04:05:30;;;;;;;20.15;14.85;;;0.20;99.90;;;;;;5031839;28;20693;-40
2021/03/09 04:07:57;;;;;;;20.35;16.20;;;0.20;99.90;;;;;;5035304;28;20216;-40
2021/03/09 04:10:25;;;;;;;21.08;16.25;;;0.30;99.90;;;;;;5035238;28;20233;-40
2021/03/09 04:12:54;;;;;;;24.65;17.10;;;0.20;99.90;;;;;;5035148;28;20260;-40
2021/03/09 04:15:24;;;;;;;23.58;16.25;;;0.20;99.90;;;;;;5035362;28;20208;-40
2021/03/09 04:17:53;;;;;;;21.60;16.27;;;0.20;99.90;;;;;;5035206;28;20235;-41
2021/03/09 04:20:38;;;;;;;22.70;16.38;;;0.20;99.90;;;;;;5035097;28;20205;-40
2021/03/09 04:23:06;;;;;;;19.65;16.13;;;0.20;99.90;;;;;;5034947;28;20575;-40
2021/03/09 04:25:34;;;;;;;24.65;15.68;;;0.20;99.90;;;;;;5035045;28;20298;-40
2021/03/09 04:28:03;;;;;;;19.13;14.88;;;0.20;99.90;;;;;;5034765;28;20247;-40
2021/03/09 04:30:32;;;;;;;19.73;15.25;;;0.30;99.90;;;;;;5035063;28;20219;-40
2021/03/09 04:32:59;;;;;;;20.15;15.18;;;0.30;99.90;;;;;;5034761;28;20755;-40
2021/03/09 04:35:27;;;;;;;20.67;15.60;;;0.30;99.90;;;;;;5034937;28;20212;-40
2021/03/09 04:37:55;;;;;;;17.83;14.98;;;0.30;99.90;;;;;;5034702;28;20303;-40
2021/03/09 04:40:23;;;;;;;21.42;15.35;;;0.30;99.90;;;;;;5034596;28;20659;-40
2021/03/09 04:42:50;;;;;;;21.13;15.32;;;0.20;99.90;;;;;;5034572;28;20566;-41
2021/03/09 04:45:18;;;;;;;19.90;15.63;;;0.20;99.90;;;;;;5034640;28;20303;-40
2021/03/09 04:47:46;;;;;;;20.88;15.80;;;0.10;99.90;;;;;;5034528;28;20702;-40
2021/03/09 04:50:15;;;;;;;20.23;16.45;;;0.20;99.90;;;;;;5034427;28;20646;-40
2021/03/09 04:52:45;;;;;;;21.08;16.88;;;0.20;99.90;;;;;;5034600;28;20316;-41
2021/03/09 04:55:15;;;;;;;23.48;17.27;;;0.20;99.90;;;;;;5034446;28;20304;-41
2021/03/09 04:57:43;;;;;;;18.27;15.38;;;0.20;99.90;;;;;;5034445;28;20208;-41
2021/03/09 05:00:12;;;;;;;20.33;16.38;;;0.20;99.90;;;;;;5034287;28;20241;-41
2021/03/09 05:02:41;;;;;;;25.48;16.45;;;0.20;99.90;;;;;;5033648;28;20272;-41
2021/03/09 05:05:09;;;;;;;19.08;16.33;;;0.20;99.90;;;;;;5033890;28;20578;-41
2021/03/09 05:07:36;;;;;;;20.40;16.25;;;0.20;99.90;;;;;;5033982;28;20211;-40
2021/03/09 05:10:04;;;;;;;21.13;15.38;;;0.10;99.90;;;;;;5034156;28;20321;-39
2021/03/09 05:12:32;;;;;;;20.23;15.85;;;0.10;99.90;;;;;;5033935;28;20251;-40
2021/03/09 05:14:59;;;;;;;20.10;15.40;;;0.10;99.90;;;;;;5033857;28;20236;-40
2021/03/09 05:21:18;;;;;;;30.80;22.02;;;0.10;99.90;;;;;;5034014;28;20209;-40
2021/03/09 05:23:45;;;;;;;32.63;22.75;;;0.00;99.90;;;;;;5033882;28;20201;-41
2021/03/09 05:27:09;;;;;;;22.92;16.25;;;0.00;99.90;;;;;;5034058;28;20209;-40
2021/03/09 05:29:37;;;;;;;22.05;16.75;;;0.00;99.90;;;;;;5033509;28;20232;-39
2021/03/09 05:32:04;;;;;;;22.63;17.95;;;0.00;99.90;;;;;;5033978;28;20235;-40
2021/03/09 05:34:31;;;;;;;21.80;16.73;;;0.00;99.90;;;;;;5033576;28;20679;-40
2021/03/09 05:36:58;;;;;;;20.45;15.07;;;0.00;99.90;;;;;;5033729;28;20667;-40
2021/03/09 05:39:25;;;;;;;21.70;15.68;;;0.10;99.90;;;;;;5033734;28;20215;-40
2021/03/09 05:41:52;;;;;;;22.40;16.02;;;0.10;99.90;;;;;;5033466;28;20213;-40
2021/03/09 05:44:19;;;;;;;25.42;16.63;;;0.10;99.90;;;;;;5033400;28;20209;-40
2021/03/09 05:46:47;;;;;;;19.23;16.40;;;0.20;99.90;;;;;;5033295;28;20739;-39
2021/03/09 05:49:14;;;;;;;20.53;16.67;;;0.20;99.90;;;;;;5033441;28;20212;-39
2021/03/09 05:51:50;;;;;;;25.67;17.08;;;0.30;99.90;;;;;;5033391;28;20208;-40
2021/03/09 05:54:17;;;;;;;30.70;18.60;;;0.30;99.90;;;;;;5033554;28;20575;-39
2021/03/09 05:56:44;;;;;;;21.10;16.23;;;0.40;99.90;;;;;;5033278;28;20212;-40
2021/03/09 05:59:11;;;;;;;22.90;15.73;;;0.40;99.90;;;;;;5033150;28;20240;-40
2021/03/09 06:01:38;;;;;;;19.98;15.98;;;0.50;99.90;;;;;;5033243;28;20240;-39
2021/03/09 06:04:07;;;;;;;24.92;14.88;;;0.50;99.90;;;;;;5033250;28;20300;-39
2021/03/09 06:06:34;;;;;;;21.30;16.58;;;0.50;99.90;;;;;;5033587;28;20248;-39
2021/03/09 06:09:02;;;;;;;19.48;15.23;;;0.50;99.90;;;;;;5032984;28;20239;-39
2021/03/09 06:11:29;;;;;;;20.23;16.70;;;0.50;99.90;;;;;;5032295;28;20299;-39
2021/03/09 06:13:58;;;;;;;24.02;17.00;;;0.50;99.90;;;;;;5032844;28;20240;-39
2021/03/09 06:16:24;;;;;;;34.53;23.25;;;0.50;99.90;;;;;;5032812;28;20682;-39
2021/03/09 06:18:53;;;;;;;32.83;21.67;;;0.50;99.90;;;;;;5032388;28;20215;-39
2021/03/09 06:21:21;;;;;;;34.85;24.15;;;0.50;99.90;;;;;;5032658;28;20209;-40
2021/03/09 06:23:48;;;;;;;24.80;18.83;;;0.50;99.90;;;;;;5032332;28;20258;-40
2021/03/09 06:26:35;;;;;;;25.65;18.73;;;0.50;99.90;;;;;;5032510;28;20239;-39
2021/03/09 06:29:11;;;;;;;25.55;19.17;;;0.60;99.90;;;;;;5032034;28;20247;-39
2021/03/09 06:31:38;;;;;;;26.50;19.60;;;0.60;99.90;;;;;;5032493;28;20208;-39
2021/03/09 06:34:25;;;;;;;22.63;17.38;;;0.60;99.90;;;;;;5032458;28;20232;-39
2021/03/09 06:37:08;;;;;;;26.25;16.75;;;0.70;99.90;;;;;;5032442;28;20204;-39
2021/03/09 06:39:44;;;;;;;26.02;18.52;;;0.70;99.90;;;;;;5032375;28;20296;-39
2021/03/09 06:42:13;;;;;;;22.92;18.55;;;0.70;99.90;;;;;;5032423;28;20205;-39
2021/03/09 06:44:40;;;;;;;23.25;18.08;;;0.80;99.90;;;;;;5032272;28;20307;-40
2021/03/09 06:47:08;;;;;;;34.70;24.73;;;0.90;99.90;;;;;;5032125;28;20223;-40
2021/03/09 06:49:52;;;;;;;49.70;34.30;;;1.00;99.90;;;;;;5032486;28;20205;-39
2021/03/09 06:52:26;;;;;;;23.00;17.30;;;1.10;99.90;;;;;;5032249;28;20316;-40
2021/03/09 06:54:54;;;;;;;23.73;17.70;;;1.20;99.90;;;;;;5032115;28;20295;-40
2021/03/09 06:57:21;;;;;;;22.80;18.25;;;1.30;99.90;;;;;;5032031;28;20262;-40
2021/03/09 06:59:50;;;;;;;25.83;18.83;;;1.40;99.90;;;;;;5032295;28;20295;-40
2021/03/09 07:02:19;;;;;;;23.13;18.77;;;1.50;99.90;;;;;;5031830;28;20329;-40
2021/03/09 07:04:48;;;;;;;29.55;22.85;;;1.50;99.90;;;;;;5032069;28;20209;-40
2021/03/09 07:07:20;;;;;;;25.67;19.58;;;1.60;99.90;;;;;;5031859;28;20743;-40
2021/03/09 07:09:56;;;;;;;25.17;19.95;;;1.60;99.90;;;;;;5031785;28;20307;-40
2021/03/09 07:12:24;;;;;;;34.70;18.60;;;1.70;99.90;;;;;;5031945;28;20291;-39
2021/03/09 07:14:52;;;;;;;27.38;19.75;;;1.80;99.90;;;;;;5032190;28;20307;-40
2021/03/09 07:17:24;;;;;;;25.48;18.65;;;2.00;99.90;;;;;;5032176;28;20205;-40
2021/03/09 07:19:52;;;;;;;25.05;19.65;;;2.20;99.90;;;;;;5031917;28;20209;-40
2021/03/09 07:22:21;;;;;;;25.58;19.80;;;2.30;99.90;;;;;;5031754;28;20240;-40
2021/03/09 07:24:59;;;;;;;21.58;17.95;;;2.40;99.90;;;;;;5032037;28;20252;-40
2021/03/09 07:27:33;;;;;;;26.45;19.30;;;2.50;99.90;;;;;;5031762;28;20636;-40
2021/03/09 07:30:01;;;;;;;25.13;18.48;;;2.60;99.90;;;;;;5031880;28;20312;-40
2021/03/09 07:32:31;;;;;;;25.02;19.05;;;2.70;99.90;;;;;;5031758;28;20315;-40
2021/03/09 07:35:00;;;;;;;27.58;19.67;;;2.90;99.90;;;;;;5031721;28;20217;-40
2021/03/09 07:37:28;;;;;;;25.52;20.58;;;3.00;99.90;;;;;;5031652;28;20244;-41
2021/03/09 07:39:57;;;;;;;26.45;20.98;;;3.10;99.90;;;;;;5031734;28;20215;-40
2021/03/09 07:42:24;;;;;;;22.52;18.85;;;3.10;99.90;;;;;;5031028;28;20295;-40
2021/03/09 07:44:53;;;;;;;22.85;17.65;;;3.10;99.90;;;;;;5031559;28;20256;-40
2021/03/09 07:47:21;;;;;;;24.75;18.30;;;3.20;99.90;;;;;;5031441;28;20313;-40
2021/03/09 07:49:48;;;;;;;27.40;19.50;;;3.20;99.90;;;;;;5031799;28;20205;-40
2021/03/09 07:52:19;;;;;;;23.15;18.58;;;3.30;99.90;;;;;;5031682;28;20239;-40
2021/03/09 07:55:20;;;;;;;26.00;18.63;;;3.40;99.90;;;;;;5031976;28;20236;-40
2021/03/09 07:57:47;;;;;;;30.42;22.08;;;3.50;99.90;;;;;;4970887;28;20210;-40
2021/03/09 08:00:15;;;;;;;26.65;18.52;;;3.60;99.90;;;;;;5019902;28;20251;-40
2021/03/09 08:02:49;;;;;;;27.10;19.65;;;3.70;99.90;;;;;;5031541;28;20323;-40
2021/03/09 08:05:17;;;;;;;26.23;20.48;;;3.70;99.90;;;;;;5031601;28;20209;-40
2021/03/09 08:07:53;;;;;;;24.95;18.38;;;3.80;99.90;;;;;;5031450;28;20209;-40
2021/03/09 08:10:40;;;;;;;25.80;20.67;;;4.00;99.90;;;;;;5031300;28;20551;-40
2021/03/09 08:13:26;;;;;;;22.67;17.92;;;4.10;99.90;;;;;;5031440;28;20702;-40
2021/03/09 08:16:33;;;;;;;29.38;20.50;;;4.10;99.90;;;;;;5031283;28;20244;-40
2021/03/09 08:19:09;;;;;;;30.63;19.97;;;4.10;99.90;;;;;;5031609;28;20295;-40
2021/03/09 08:21:55;;;;;;;23.80;18.98;;;4.20;99.90;;;;;;5031276;28;20258;-40
2021/03/09 08:24:55;;;;;;;29.15;20.73;;;4.30;99.90;;;;;;5031136;28;20556;-40
2021/03/09 08:27:51;;;;;;;26.65;20.20;;;4.40;99.90;;;;;;5031204;28;20208;-40
2021/03/09 08:30:37;;;;;;;25.55;19.70;;;4.50;99.90;;;;;;5031365;28;20209;-40
2021/03/09 08:33:23;;;;;;;25.90;20.80;;;4.60;99.90;;;;;;5031207;28;20228;-40
2021/03/09 08:35:50;;;;;;;30.60;20.20;;;4.50;99.90;;;;;;5031346;28;20231;-40
2021/03/09 08:38:21;;;;;;;26.55;19.55;;;4.70;99.90;;;;;;5031355;28;20236;-40
2021/03/09 08:41:09;;;;;;;23.65;19.52;;;4.80;99.90;;;;;;5031066;28;20251;-40
2021/03/09 08:43:39;;;;;;;26.02;20.58;;;4.90;99.90;;;;;;5030838;28;20668;-39
2021/03/09 08:46:08;;;;;;;29.38;21.40;;;5.00;99.90;;;;;;5030810;28;20240;-39
2021/03/09 08:48:56;;;;;;;26.00;20.05;;;5.10;99.90;;;;;;5031086;28;20271;-39
2021/03/09 08:51:40;;;;;;;26.55;20.15;;;5.20;99.90;;;;;;5026246;28;20727;-39
2021/03/09 08:54:33;;;;;;;26.88;22.20;;;5.40;99.90;;;;;;5034357;28;20311;-39
2021/03/09 08:57:02;;;;;;;31.23;20.58;;;5.50;99.70;;;;;;5034138;28;20248;-41
2021/03/09 08:59:31;;;;;;;29.55;21.15;;;5.50;99.80;;;;;;5034342;28;20297;-40
2021/03/09 09:02:05;;;;;;;25.83;20.73;;;5.60;99.60;;;;;;5034269;28;20733;-40
2021/03/09 09:04:33;;;;;;;22.45;19.50;;;5.60;99.50;;;;;;5034344;28;20312;-41
2021/03/09 09:07:00;;;;;;;27.13;20.50;;;5.70;99.50;;;;;;5034428;28;20215;-40
2021/03/09 09:09:36;;;;;;;27.25;19.85;;;5.80;99.40;;;;;;5034263;28;20322;-40
2021/03/09 09:12:24;;;;;;;25.05;20.60;;;5.80;99.30;;;;;;5034313;28;20235;-40
2021/03/09 09:15:19;;;;;;;26.77;19.85;;;5.70;99.40;;;;;;5034220;28;20663;-40
2021/03/09 09:17:48;;;;;;;26.08;19.30;;;5.90;99.40;;;;;;5034034;28;20239;-40
2021/03/09 09:20:22;;;;;;;27.50;20.27;;;6.10;99.20;;;;;;5034000;28;20750;-41
2021/03/09 09:22:52;;;;;;;29.20;21.48;;;6.20;98.90;;;;;;5034139;28;20248;-40
2021/03/09 09:25:20;;;;;;;29.17;24.13;;;6.30;98.70;;;;;;5033965;28;20641;-40
2021/03/09 09:27:49;;;;;;;22.80;20.38;;;6.40;98.60;;;;;;5033932;28;20208;-40
2021/03/09 09:30:21;;;;;;;23.60;19.23;;;6.50;98.50;;;;;;5033860;28;20295;-40
2021/03/09 09:32:56;;;;;;;21.85;19.55;;;6.50;98.20;;;;;;5033627;28;20594;-40
2021/03/09 09:35:26;;;;;;;25.20;20.73;;;6.50;98.10;;;;;;5033609;28;20766;-40
2021/03/09 09:37:55;;;;;;;24.85;20.80;;;6.50;98.20;;;;;;5033539;28;20221;-40
2021/03/09 09:40:26;;;;;;;21.40;18.92;;;6.70;98.10;;;;;;5033803;28;20239;-40
2021/03/09 09:42:59;;;;;;;23.52;19.50;;;6.80;97.70;;;;;;5033551;28;20209;-40
2021/03/09 09:45:27;;;;;;;23.73;19.73;;;7.00;97.40;;;;;;5033529;28;20232;-40
2021/03/09 09:47:55;;;;;;;29.52;22.00;;;7.10;97.20;;;;;;5033560;28;20299;-40
2021/03/09 09:50:23;;;;;;;26.75;20.73;;;7.20;96.90;;;;;;5033533;28;20303;-41
2021/03/09 09:52:58;;;;;;;22.40;19.00;;;7.30;96.80;;;;;;5033713;28;20224;-41
2021/03/09 09:55:28;;;;;;;24.98;20.85;;;7.40;96.60;;;;;;5033294;28;20303;-41
2021/03/09 09:57:57;;;;;;;24.05;18.95;;;7.40;96.50;;;;;;5033312;28;20213;-41
2021/03/09 10:00:27;;;;;;;24.23;18.65;;;7.40;96.50;;;;;;5033197;28;20311;-42
2021/03/09 10:03:08;;;;;;;23.27;20.42;;;7.30;96.30;;;;;;5033075;28;20390;-41
2021/03/09 10:05:36;;;;;;;21.08;18.50;;;7.50;96.20;;;;;;5032573;28;20290;-40
2021/03/09 10:08:03;;;;;;;22.58;19.85;;;7.70;96.00;;;;;;5032902;28;20621;-41
2021/03/09 10:10:30;;;;;;;21.35;18.95;;;7.90;95.60;;;;;;5033533;28;20291;-41
2021/03/09 10:12:57;;;;;;;21.77;18.63;;;8.10;95.30;;;;;;5032820;28;20236;-40
2021/03/09 10:15:24;;;;;;;22.65;18.63;;;8.20;95.10;;;;;;5032770;28;20291;-38
2021/03/09 10:18:03;;;;;;;22.58;19.65;;;8.30;94.80;;;;;;5032473;28;20212;-38
2021/03/09 10:20:31;;;;;;;21.45;19.13;;;8.40;94.50;;;;;;5032630;28;20697;-38
2021/03/09 10:23:02;;;;;;;20.70;18.15;;;8.50;94.40;;;;;;5032561;28;20292;-38
2021/03/09 10:25:29;;;;;;;21.08;18.70;;;8.60;94.20;;;;;;5032636;28;20212;-38
2021/03/09 10:28:04;;;;;;;25.45;18.92;;;8.60;94.10;;;;;;5032443;28;20719;-39
2021/03/09 10:30:41;;;;;;;22.15;19.63;;;8.70;94.00;;;;;;5032327;28;20212;-40
2021/03/09 10:33:10;;;;;;;21.15;18.83;;;8.70;93.80;;;;;;5032409;28;20260;-40
2021/03/09 10:36:02;;;;;;;21.10;17.10;;;8.70;93.80;;;;;;5032211;28;20727;-40
2021/03/09 10:38:29;;;;;;;21.67;17.30;;;8.70;93.50;;;;;;5032605;28;20258;-40
2021/03/09 10:40:56;;;;;;;18.30;16.42;;;8.80;93.50;;;;;;5032449;28;20204;-40
2021/03/09 10:43:44;;;;;;;21.30;16.55;;;8.80;93.20;;;;;;5032252;28;20307;-40
2021/03/09 10:46:12;;;;;;;17.75;14.85;;;8.90;92.80;;;;;;5032313;28;20722;-40
2021/03/09 10:48:41;;;;;;;26.23;21.73;;;9.00;92.70;;;;;;5032089;28;20251;-40
2021/03/09 10:51:15;;;;;;;19.42;17.38;;;8.90;92.50;;;;;;5032033;28;20205;-40
2021/03/09 10:53:42;;;;;;;17.27;15.43;;;8.90;92.50;;;;;;5032260;28;20315;-40
2021/03/09 10:56:09;;;;;;;18.98;15.90;;;8.90;92.40;;;;;;5031957;28;20235;-40
2021/03/09 10:58:36;;;;;;;17.48;14.82;;;9.10;92.20;;;;;;5031787;28;20299;-40
2021/03/09 11:01:03;;;;;;;16.63;14.13;;;9.20;91.70;;;;;;5031831;28;20291;-40
2021/03/09 11:03:30;;;;;;;17.23;14.57;;;9.40;91.40;;;;;;5031838;28;20414;-40
2021/03/09 11:05:59;;;;;;;21.10;16.05;;;9.40;90.80;;;;;;5032037;28;20270;-40
2021/03/09 11:08:26;;;;;;;14.75;13.25;;;9.50;90.70;;;;;;5031799;28;20240;-40
2021/03/09 11:10:53;;;;;;;15.70;13.32;;;9.50;90.30;;;;;;5031516;28;20321;-40
2021/03/09 11:13:21;;;;;;;15.73;12.90;;;9.60;90.20;;;;;;5031453;28;20307;-40
2021/03/09 11:15:48;;;;;;;14.57;13.10;;;9.60;89.50;;;;;;5030799;28;20208;-40
2021/03/09 11:18:15;;;;;;;18.00;13.60;;;9.70;88.90;;;;;;5031676;28;20237;-40
2021/03/09 11:20:43;;;;;;;17.88;13.98;;;9.90;88.30;;;;;;5031490;28;20219;-40
2021/03/09 11:23:11;;;;;;;11.68;9.88;;;9.90;87.80;;;;;;5031505;28;20232;-40
2021/03/09 11:25:37;;;;;;;13.18;10.77;;;10.00;87.20;;;;;;5031710;28;20247;-40
2021/03/09 11:28:05;;;;;;;12.68;11.38;;;10.20;86.00;;;;;;5031156;28;20272;-40
2021/03/09 11:30:32;;;;;;;12.15;10.95;;;10.20;84.40;;;;;;5031684;28;20567;-40
2021/03/09 11:32:59;;;;;;;9.23;8.32;;;10.10;83.90;;;;;;5031162;28;20321;-40
2021/03/09 11:35:26;;;;;;;11.55;7.63;;;10.00;83.50;;;;;;5031375;28;20209;-40
2021/03/09 11:37:53;;;;;;;11.05;9.85;;;9.90;82.60;;;;;;5031572;28;20266;-40
2021/03/09 11:40:22;;;;;;;9.38;8.35;;;10.00;81.90;;;;;;5031751;28;20691;-40
2021/03/09 11:42:48;;;;;;;9.55;8.52;;;10.00;81.40;;;;;;5031477;28;20212;-41
2021/03/09 11:45:16;;;;;;;9.23;8.35;;;10.10;80.20;;;;;;5031702;28;20209;-41
2021/03/09 11:47:43;;;;;;;10.52;8.90;;;10.10;79.20;;;;;;5032024;28;20297;-40
2021/03/09 11:50:11;;;;;;;11.13;8.65;;;10.10;78.10;;;;;;5031751;28;20212;-40
2021/03/09 11:52:39;;;;;;;9.70;8.70;;;10.10;77.60;;;;;;5031277;28;20248;-40
2021/03/09 11:55:07;;;;;;;10.48;8.38;;;10.20;78.10;;;;;;5031094;28;20617;-40
2021/03/09 11:57:35;;;;;;;9.48;7.75;;;10.30;76.80;;;;;;5031788;28;20231;-40
2021/03/09 12:00:04;;;;;;;10.23;9.23;;;10.40;76.70;;;;;;5030768;28;20258;-39
2021/03/09 12:02:30;;;;;;;9.38;8.38;;;10.60;75.20;;;;;;5031038;28;20240;-40
2021/03/09 12:04:58;;;;;;;10.00;9.10;;;10.80;74.50;;;;;;5031264;28;20308;-40
2021/03/09 12:07:25;;;;;;;11.10;9.00;;;11.00;73.50;;;;;;5031265;28;20212;-40
2021/03/09 12:09:52;;;;;;;10.35;9.10;;;11.10;72.90;;;;;;5031215;28;20578;-40
2021/03/09 12:12:19;;;;;;;14.70;9.75;;;11.20;72.20;;;;;;5031342;28;20274;-40
2021/03/09 12:14:47;;;;;;;10.63;9.55;;;11.30;71.70;;;;;;5031156;28;20291;-40
2021/03/09 12:17:14;;;;;;;11.75;10.00;;;11.10;71.40;;;;;;5031183;28;20432;-40
2021/03/09 12:19:41;;;;;;;11.57;10.38;;;10.90;72.40;;;;;;5031235;28;20251;-40
2021/03/09 12:22:08;;;;;;;13.73;10.80;;;10.70;72.90;;;;;;5031095;28;20211;-40
2021/03/09 12:24:35;;;;;;;13.40;12.00;;;10.50;72.80;;;;;;5031258;28;20205;-40
2021/03/09 12:27:02;;;;;;;12.80;11.50;;;10.20;73.60;;;;;;5031967;28;20208;-39
2021/03/09 12:29:30;;;;;;;15.85;12.68;;;10.20;73.80;;;;;;5034890;28;20706;-40
2021/03/09 12:31:57;;;;;;;14.00;12.57;;;10.10;73.40;;;;;;5034842;28;20300;-39
2021/03/09 12:34:25;;;;;;;17.25;14.98;;;9.90;73.30;;;;;;5034573;28;20695;-39
2021/03/09 12:36:52;;;;;;;12.93;10.95;;;9.70;74.00;;;;;;5034460;28;20271;-40
2021/03/09 12:39:18;;;;;;;11.75;10.60;;;9.70;74.20;;;;;;5035077;28;20301;-40
2021/03/09 12:41:46;;;;;;;12.18;10.98;;;9.70;74.20;;;;;;5035314;28;20585;-40
2021/03/09 12:44:13;;;;;;;12.20;10.80;;;9.80;73.90;;;;;;5036107;28;20232;-39
2021/03/09 12:46:40;;;;;;;12.88;11.48;;;9.90;73.50;;;;;;5035524;28;20223;-40
2021/03/09 12:49:08;;;;;;;12.27;11.07;;;10.00;73.20;;;;;;5036434;28;20268;-40
2021/03/09 12:51:39;;;;;;;12.32;10.68;;;10.10;73.00;;;;;;5037497;28;20299;-39
2021/03/09 12:54:07;;;;;;;12.23;10.88;;;10.20;72.50;;;;;;5036216;28;20310;-39
2021/03/09 12:56:34;;;;;;;11.95;10.75;;;10.30;72.10;;;;;;5035069;28;20213;-40
2021/03/09 12:59:01;;;;;;;12.35;11.02;;;10.40;71.60;;;;;;5035116;28;20208;-40